sensor_id;sensor_type;location;lat;lon;timestamp;pressure;altitude;pressure_sealevel;temperature;humidity
18900;BME280;9582;52.018;6.306;2023-02-05T00:01:15;103567.44;;;6.83;100.00
18900;BME280;9582;52.018;6.306;2023-02-05T00:03:51;103562.28;;;6.87;100.00
18900;BME280;9582;52.018;6.306;2023-02-05T00:06:23;103558.84;;;6.91;100.00
18900;BME280;9582;52.018;6.306;2023-02-05T00:08:51;103568.41;;;6.91;100.00
18900;BME280;9582;52.018;6.306;2023-02-05T00:11:18;103567.44;;;6.86;100.00
18900;BME280;9582;52.018;6.306;2023-02-05T00:13:48;103562.28;;;6.87;100.00
18900;BME280;9582;52.018;6.306;2023-02-05T00:16:25;103554.50;;;6.89;100.00
18900;BME280;9582;52.018;6.306;2023-02-05T00:18:52;103553.69;;;6.93;100.00
18900;BME280;9582;52.018;6.306;2023-02-05T00:21:21;103554.56;;;6.95;100.00
18900;BME280;9582;52.018;6.306;2023-02-05T00:23:48;103530.28;;;6.93;100.00
18900;BME280;9582;52.018;6.306;2023-02-05T00:26:18;103533.72;;;6.92;100.00
18900;BME280;9582;52.018;6.306;2023-02-05T00:28:48;103526.00;;;6.96;100.00
18900;BME280;9582;52.018;6.306;2023-02-05T00:31:18;103519.09;;;6.98;100.00
18900;BME280;9582;52.018;6.306;2023-02-05T00:34:00;103510.44;;;7.00;100.00
18900;BME280;9582;52.018;6.306;2023-02-05T00:36:30;103497.38;;;6.96;100.00
18900;BME280;9582;52.018;6.306;2023-02-05T00:38:56;103501.66;;;6.94;100.00
18900;BME280;9582;52.018;6.306;2023-02-05T00:41:25;103511.25;;;6.95;100.00
18900;BME280;9582;52.018;6.306;2023-02-05T00:43:57;103513.78;;;6.92;100.00
18900;BME280;9582;52.018;6.306;2023-02-05T00:46:32;103511.19;;;6.91;100.00
18900;BME280;9582;52.018;6.306;2023-02-05T00:49:03;103502.47;;;6.89;100.00
18900;BME280;9582;52.018;6.306;2023-02-05T00:51:38;103483.41;;;6.88;100.00
18900;BME280;9582;52.018;6.306;2023-02-05T00:54:05;103484.22;;;6.86;100.00
18900;BME280;9582;52.018;6.306;2023-02-05T00:56:37;103472.97;;;6.85;100.00
18900;BME280;9582;52.018;6.306;2023-02-05T00:59:05;103488.53;;;6.82;100.00
18900;BME280;9582;52.018;6.306;2023-02-05T01:01:39;103491.13;;;6.84;100.00
18900;BME280;9582;52.018;6.306;2023-02-05T01:04:09;103480.72;;;6.82;100.00
18900;BME280;9582;52.018;6.306;2023-02-05T01:06:48;103485.06;;;6.82;100.00
18900;BME280;9582;52.018;6.306;2023-02-05T01:09:14;103486.72;;;6.78;100.00
18900;BME280;9582;52.018;6.306;2023-02-05T01:11:45;103485.13;;;6.88;100.00
18900;BME280;9582;52.018;6.306;2023-02-05T01:14:13;103485.06;;;6.82;100.00
18900;BME280;9582;52.018;6.306;2023-02-05T01:16:52;103483.34;;;6.82;100.00
18900;BME280;9582;52.018;6.306;2023-02-05T01:19:24;103480.81;;;6.90;100.00
18900;BME280;9582;52.018;6.306;2023-02-05T01:21:54;103479.06;;;6.87;100.00
18900;BME280;9582;52.018;6.306;2023-02-05T01:24:22;103483.41;;;6.90;100.00
18900;BME280;9582;52.018;6.306;2023-02-05T01:26:51;103490.25;;;6.83;100.00
18900;BME280;9582;52.018;6.306;2023-02-05T01:29:23;103490.34;;;6.88;100.00
18900;BME280;9582;52.018;6.306;2023-02-05T01:31:51;103479.00;;;6.86;100.00
18900;BME280;9582;52.018;6.306;2023-02-05T01:34:18;103493.81;;;6.90;100.00
18900;BME280;9582;52.018;6.306;2023-02-05T01:36:48;103505.16;;;6.93;100.00
18900;BME280;9582;52.018;6.306;2023-02-05T01:39:16;103502.56;;;6.95;100.00
18900;BME280;9582;52.018;6.306;2023-02-05T01:41:45;103500.88;;;6.97;100.00
18900;BME280;9582;52.018;6.306;2023-02-05T01:44:13;103503.50;;;7.02;100.00
18900;BME280;9582;52.018;6.306;2023-02-05T01:46:53;103496.63;;;7.05;100.00
18900;BME280;9582;52.018;6.306;2023-02-05T01:49:32;103494.91;;;7.09;100.00
18900;BME280;9582;52.018;6.306;2023-02-05T01:52:02;103501.88;;;7.08;100.00
18900;BME280;9582;52.018;6.306;2023-02-05T01:54:37;103493.19;;;7.08;100.00
18900;BME280;9582;52.018;6.306;2023-02-05T01:57:16;103488.00;;;7.09;100.00
18900;BME280;9582;52.018;6.306;2023-02-05T01:59:52;103492.41;;;7.15;100.00
18900;BME280;9582;52.018;6.306;2023-02-05T02:02:20;103492.47;;;7.21;100.00
18900;BME280;9582;52.018;6.306;2023-02-05T02:04:51;103485.56;;;7.24;100.00
18900;BME280;9582;52.018;6.306;2023-02-05T02:07:23;103496.03;;;7.29;100.00
18900;BME280;9582;52.018;6.306;2023-02-05T02:09:54;103496.06;;;7.32;100.00
18900;BME280;9582;52.018;6.306;2023-02-05T02:12:28;103490.84;;;7.32;100.00
18900;BME280;9582;52.018;6.306;2023-02-05T02:14:59;103483.09;;;7.35;100.00
18900;BME280;9582;52.018;6.306;2023-02-05T02:17:30;103471.84;;;7.37;100.00
18900;BME280;9582;52.018;6.306;2023-02-05T02:20:03;103458.00;;;7.41;100.00
18900;BME280;9582;52.018;6.306;2023-02-05T02:22:56;103465.81;;;7.43;100.00
18900;BME280;9582;52.018;6.306;2023-02-05T02:25:47;103458.88;;;7.42;100.00
18900;BME280;9582;52.018;6.306;2023-02-05T02:28:24;103462.38;;;7.45;100.00
18900;BME280;9582;52.018;6.306;2023-02-05T02:31:06;103455.44;;;7.46;100.00
18900;BME280;9582;52.018;6.306;2023-02-05T02:33:43;103451.06;;;7.42;100.00
18900;BME280;9582;52.018;6.306;2023-02-05T02:36:15;103450.19;;;7.43;100.00
18900;BME280;9582;52.018;6.306;2023-02-05T02:38:49;103435.44;;;7.43;100.00
18900;BME280;9582;52.018;6.306;2023-02-05T02:41:23;103424.19;;;7.46;100.00
18900;BME280;9582;52.018;6.306;2023-02-05T02:43:58;103428.56;;;7.48;100.00
18900;BME280;9582;52.018;6.306;2023-02-05T02:46:38;103430.28;;;7.45;100.00
18900;BME280;9582;52.018;6.306;2023-02-05T02:49:12;103432.00;;;7.44;100.00
18900;BME280;9582;52.018;6.306;2023-02-05T02:51:43;103432.00;;;7.44;100.00
18900;BME280;9582;52.018;6.306;2023-02-05T02:54:13;103428.50;;;7.42;100.00
18900;BME280;9582;52.018;6.306;2023-02-05T02:56:47;103425.88;;;7.41;100.00
18900;BME280;9582;52.018;6.306;2023-02-05T02:59:23;103429.38;;;7.43;100.00
18900;BME280;9582;52.018;6.306;2023-02-05T03:01:56;103426.75;;;7.41;100.00
18900;BME280;9582;52.018;6.306;2023-02-05T03:04:28;103423.25;;;7.38;100.00
18900;BME280;9582;52.018;6.306;2023-02-05T03:07:05;103418.06;;;7.41;100.00
18900;BME280;9582;52.018;6.306;2023-02-05T03:09:37;103415.47;;;7.41;100.00
18900;BME280;9582;52.018;6.306;2023-02-05T03:12:09;103416.34;;;7.41;100.00
18900;BME280;9582;52.018;6.306;2023-02-05T03:14:45;103413.78;;;7.44;100.00
18900;BME280;9582;52.018;6.306;2023-02-05T03:17:15;103421.59;;;7.44;100.00
18900;BME280;9582;52.018;6.306;2023-02-05T03:19:48;103423.34;;;7.47;100.00
18900;BME280;9582;52.018;6.306;2023-02-05T03:22:24;103426.81;;;7.46;100.00
18900;BME280;9582;52.018;6.306;2023-02-05T03:25:00;103427.69;;;7.48;100.00
18900;BME280;9582;52.018;6.306;2023-02-05T03:27:31;103424.19;;;7.46;100.00
18900;BME280;9582;52.018;6.306;2023-02-05T03:30:08;103422.47;;;7.48;100.00
18900;BME280;9582;52.018;6.306;2023-02-05T03:32:52;103423.38;;;7.51;100.00
18900;BME280;9582;52.018;6.306;2023-02-05T03:35:31;103437.31;;;7.56;100.00
18900;BME280;9582;52.018;6.306;2023-02-05T03:38:14;103432.13;;;7.58;100.00
18900;BME280;9582;52.018;6.306;2023-02-05T03:40:50;103431.31;;;7.65;100.00
18900;BME280;9582;52.018;6.306;2023-02-05T03:43:27;103436.53;;;7.65;100.00
18900;BME280;9582;52.018;6.306;2023-02-05T03:46:02;103433.03;;;7.62;100.00
18900;BME280;9582;52.018;6.306;2023-02-05T03:48:47;103434.81;;;7.67;100.00
18900;BME280;9582;52.018;6.306;2023-02-05T03:51:34;103427.88;;;7.71;100.00
18900;BME280;9582;52.018;6.306;2023-02-05T03:54:10;103429.66;;;7.73;100.00
18900;BME280;9582;52.018;6.306;2023-02-05T03:56:44;103431.38;;;7.71;100.00
18900;BME280;9582;52.018;6.306;2023-02-05T03:59:19;103436.59;;;7.73;100.00
18900;BME280;9582;52.018;6.306;2023-02-05T04:01:54;103427.88;;;7.69;100.00
18900;BME280;9582;52.018;6.306;2023-02-05T04:04:26;103427.88;;;7.68;100.00
18900;BME280;9582;52.018;6.306;2023-02-05T04:07:00;103438.31;;;7.69;100.00
18900;BME280;9582;52.018;6.306;2023-02-05T04:09:28;103427.03;;;7.70;100.00
18900;BME280;9582;52.018;6.306;2023-02-05T04:11:59;103425.28;;;7.71;100.00
18900;BME280;9582;52.018;6.306;2023-02-05T04:14:31;103425.31;;;7.74;100.00
18900;BME280;9582;52.018;6.306;2023-02-05T04:17:05;103431.47;;;7.80;100.00
18900;BME280;9582;52.018;6.306;2023-02-05T04:19:35;103428.84;;;7.82;100.00
18900;BME280;9582;52.018;6.306;2023-02-05T04:22:02;103422.72;;;7.77;100.00
18900;BME280;9582;52.018;6.306;2023-02-05T04:24:32;103424.47;;;7.76;100.00
18900;BME280;9582;52.018;6.306;2023-02-05T04:27:00;103415.84;;;7.83;100.00
18900;BME280;9582;52.018;6.306;2023-02-05T04:29:33;103420.19;;;7.81;100.00
18900;BME280;9582;52.018;6.306;2023-02-05T04:32:15;103412.38;;;7.81;100.00
18900;BME280;9582;52.018;6.306;2023-02-05T04:34:41;103421.91;;;7.81;100.00
18900;BME280;9582;52.018;6.306;2023-02-05T04:37:10;103415.81;;;7.82;100.00
18900;BME280;9582;52.018;6.306;2023-02-05T04:39:42;103415.84;;;7.83;100.00
18900;BME280;9582;52.018;6.306;2023-02-05T04:42:12;103411.50;;;7.81;100.00
18900;BME280;9582;52.018;6.306;2023-02-05T04:44:43;103411.50;;;7.82;100.00
18900;BME280;9582;52.018;6.306;2023-02-05T04:47:13;103409.75;;;7.81;100.00
18900;BME280;9582;52.018;6.306;2023-02-05T04:49:42;103405.44;;;7.83;100.00
18900;BME280;9582;52.018;6.306;2023-02-05T04:52:10;103406.22;;;7.73;100.00
18900;BME280;9582;52.018;6.306;2023-02-05T04:54:41;103407.09;;;7.72;100.00
18900;BME280;9582;52.018;6.306;2023-02-05T04:57:07;103412.25;;;7.71;100.00
18900;BME280;9582;52.018;6.306;2023-02-05T04:59:36;103408.84;;;7.73;100.00
18900;BME280;9582;52.018;6.306;2023-02-05T05:02:06;103416.69;;;7.81;100.00
18900;BME280;9582;52.018;6.306;2023-02-05T05:04:34;103414.09;;;7.82;100.00
18900;BME280;9582;52.018;6.306;2023-02-05T05:07:07;103410.59;;;7.76;100.00
18900;BME280;9582;52.018;6.306;2023-02-05T05:09:40;103405.41;;;7.80;100.00
18900;BME280;9582;52.018;6.306;2023-02-05T05:12:17;103408.88;;;7.82;100.00
18900;BME280;9582;52.018;6.306;2023-02-05T05:14:46;103414.03;;;7.70;100.00
18900;BME280;9582;52.018;6.306;2023-02-05T05:17:13;103408.13;;;7.97;100.00
18900;BME280;9582;52.018;6.306;2023-02-05T05:19:43;103407.13;;;7.80;100.00
18900;BME280;9582;52.018;6.306;2023-02-05T05:22:11;103406.19;;;7.72;100.00
18900;BME280;9582;52.018;6.306;2023-02-05T05:24:47;103411.44;;;7.76;100.00
18900;BME280;9582;52.018;6.306;2023-02-05T05:27:13;103412.31;;;7.75;100.00
18900;BME280;9582;52.018;6.306;2023-02-05T05:29:47;103409.72;;;7.77;100.00
18900;BME280;9582;52.018;6.306;2023-02-05T05:32:15;103407.06;;;7.74;100.00
18900;BME280;9582;52.018;6.306;2023-02-05T05:34:43;103409.72;;;7.75;100.00
18900;BME280;9582;52.018;6.306;2023-02-05T05:37:11;103415.00;;;7.84;100.00
18900;BME280;9582;52.018;6.306;2023-02-05T05:39:40;103408.00;;;7.76;100.00
18900;BME280;9582;52.018;6.306;2023-02-05T05:42:26;103410.63;;;7.83;100.00
18900;BME280;9582;52.018;6.306;2023-02-05T05:45:16;103412.25;;;7.69;100.00
18900;BME280;9582;52.018;6.306;2023-02-05T05:47:45;103409.69;;;7.72;100.00
18900;BME280;9582;52.018;6.306;2023-02-05T05:50:13;103406.19;;;7.72;100.00
18900;BME280;9582;52.018;6.306;2023-02-05T05:52:49;103403.56;;;7.67;100.00
18900;BME280;9582;52.018;6.306;2023-02-05T05:55:29;103391.44;;;7.69;100.00
18900;BME280;9582;52.018;6.306;2023-02-05T05:57:58;103409.66;;;7.68;100.00
18900;BME280;9582;52.018;6.306;2023-02-05T06:00:26;103398.31;;;7.61;100.00
18900;BME280;9582;52.018;6.306;2023-02-05T06:02:53;103393.06;;;7.60;100.00
18900;BME280;9582;52.018;6.306;2023-02-05T06:05:23;103373.13;;;7.59;100.00
18900;BME280;9582;52.018;6.306;2023-02-05T06:07:58;103375.78;;;7.66;100.00
18900;BME280;9582;52.018;6.306;2023-02-05T06:10:29;103369.69;;;7.66;100.00
18900;BME280;9582;52.018;6.306;2023-02-05T06:12:58;103372.25;;;7.61;100.00
18900;BME280;9582;52.018;6.306;2023-02-05T06:15:25;103371.38;;;7.61;100.00
18900;BME280;9582;52.018;6.306;2023-02-05T06:17:57;103364.47;;;7.66;100.00
18900;BME280;9582;52.018;6.306;2023-02-05T06:20:30;103354.00;;;7.60;100.00
18900;BME280;9582;52.018;6.306;2023-02-05T06:23:01;103356.59;;;7.56;100.00
18900;BME280;9582;52.018;6.306;2023-02-05T06:25:41;103355.75;;;7.56;100.00
18900;BME280;9582;52.018;6.306;2023-02-05T06:28:20;103358.34;;;7.56;100.00
18900;BME280;9582;52.018;6.306;2023-02-05T06:30:54;103359.25;;;7.61;100.00
18900;BME280;9582;52.018;6.306;2023-02-05T06:33:23;103362.84;;;7.78;100.00
18900;BME280;9582;52.018;6.306;2023-02-05T06:35:52;103358.50;;;7.76;100.00
18900;BME280;9582;52.018;6.306;2023-02-05T06:38:19;103361.13;;;7.82;100.00
18900;BME280;9582;52.018;6.306;2023-02-05T06:40:46;103363.78;;;7.86;100.00
18900;BME280;9582;52.018;6.306;2023-02-05T06:43:13;103373.34;;;7.89;100.00
18900;BME280;9582;52.018;6.306;2023-02-05T06:45:42;103368.13;;;7.90;100.00
18900;BME280;9582;52.018;6.306;2023-02-05T06:48:08;103396.75;;;7.86;100.00
18900;BME280;9582;52.018;6.306;2023-02-05T06:50:35;103400.19;;;7.80;100.00
18900;BME280;9582;52.018;6.306;2023-02-05T06:53:04;103406.94;;;7.57;100.00
18900;BME280;9582;52.018;6.306;2023-02-05T06:55:35;103413.72;;;7.40;100.00
18900;BME280;9582;52.018;6.306;2023-02-05T06:58:07;103416.34;;;7.41;100.00
18900;BME280;9582;52.018;6.306;2023-02-05T07:00:40;103424.06;;;7.34;100.00
18900;BME280;9582;52.018;6.306;2023-02-05T07:03:12;103427.44;;;7.24;100.00
18900;BME280;9582;52.018;6.306;2023-02-05T07:05:40;103432.63;;;7.21;100.00
18900;BME280;9582;52.018;6.306;2023-02-05T07:08:17;103436.06;;;7.17;100.00
18900;BME280;9582;52.018;6.306;2023-02-05T07:10:52;103449.84;;;7.10;100.00
18900;BME280;9582;52.018;6.306;2023-02-05T07:13:20;103452.47;;;7.13;100.00
18900;BME280;9582;52.018;6.306;2023-02-05T07:15:51;103450.59;;;7.00;100.00
18900;BME280;9582;52.018;6.306;2023-02-05T07:18:18;103467.81;;;6.91;100.00
18900;BME280;9582;52.018;6.306;2023-02-05T07:20:44;103451.25;;;6.83;100.00
18900;BME280;9582;52.018;6.306;2023-02-05T07:23:19;103478.09;;;6.79;100.00
18900;BME280;9582;52.018;6.306;2023-02-05T07:25:48;103486.69;;;6.74;100.00
18900;BME280;9582;52.018;6.306;2023-02-05T07:28:16;103488.38;;;6.72;100.00
18900;BME280;9582;52.018;6.306;2023-02-05T07:30:48;103500.53;;;6.73;100.00
18900;BME280;9582;52.018;6.306;2023-02-05T07:33:24;103491.88;;;6.75;100.00
18900;BME280;9582;52.018;6.306;2023-02-05T07:35:56;103495.38;;;6.76;100.00
18900;BME280;9582;52.018;6.306;2023-02-05T07:38:27;103504.00;;;6.73;100.00
18900;BME280;9582;52.018;6.306;2023-02-05T07:40:55;103504.88;;;6.75;100.00
18900;BME280;9582;52.018;6.306;2023-02-05T07:43:22;103517.88;;;6.74;100.00
18900;BME280;9582;52.018;6.306;2023-02-05T07:45:57;103506.66;;;6.76;100.00
18900;BME280;9582;52.018;6.306;2023-02-05T07:48:24;103522.22;;;6.75;100.00
18900;BME280;9582;52.018;6.306;2023-02-05T07:50:53;103523.09;;;6.74;100.00
18900;BME280;9582;52.018;6.306;2023-02-05T07:53:29;103528.25;;;6.71;100.00
18900;BME280;9582;52.018;6.306;2023-02-05T07:56:03;103530.81;;;6.69;100.00
18900;BME280;9582;52.018;6.306;2023-02-05T07:58:32;103539.53;;;6.73;100.00
18900;BME280;9582;52.018;6.306;2023-02-05T08:01:07;103539.56;;;6.74;100.00
18900;BME280;9582;52.018;6.306;2023-02-05T08:03:42;103537.81;;;6.73;100.00
18900;BME280;9582;52.018;6.306;2023-02-05T08:06:10;103539.63;;;6.80;100.00
18900;BME280;9582;52.018;6.306;2023-02-05T08:08:40;103536.19;;;6.80;100.00
18900;BME280;9582;52.018;6.306;2023-02-05T08:11:15;103542.38;;;6.89;100.00
18900;BME280;9582;52.018;6.306;2023-02-05T08:13:44;103538.03;;;6.88;100.00
18900;BME280;9582;52.018;6.306;2023-02-05T08:16:13;103532.88;;;6.94;100.00
18900;BME280;9582;52.018;6.306;2023-02-05T08:18:43;103532.94;;;6.96;100.00
18900;BME280;9582;52.018;6.306;2023-02-05T08:21:12;103549.41;;;6.96;100.00
18900;BME280;9582;52.018;6.306;2023-02-05T08:23:45;103542.50;;;7.00;100.00
18900;BME280;9582;52.018;6.306;2023-02-05T08:26:19;103551.22;;;7.02;100.00
18900;BME280;9582;52.018;6.306;2023-02-05T08:28:49;103557.28;;;7.01;100.00
18900;BME280;9582;52.018;6.306;2023-02-05T08:31:17;103543.47;;;7.07;100.00
18900;BME280;9582;52.018;6.306;2023-02-05T08:33:53;103543.59;;;7.16;100.00
18900;BME280;9582;52.018;6.306;2023-02-05T08:36:26;103540.16;;;7.17;100.00
18900;BME280;9582;52.018;6.306;2023-02-05T08:38:54;103542.66;;;7.12;100.00
18900;BME280;9582;52.018;6.306;2023-02-05T08:41:20;103541.03;;;7.19;100.00
18900;BME280;9582;52.018;6.306;2023-02-05T08:43:49;103549.69;;;7.16;100.00
18900;BME280;9582;52.018;6.306;2023-02-05T08:46:17;103530.59;;;7.17;100.00
18900;BME280;9582;52.018;6.306;2023-02-05T08:48:47;103544.47;;;7.18;100.00
18900;BME280;9582;52.018;6.306;2023-02-05T08:51:18;103549.72;;;7.21;100.00
18900;BME280;9582;52.018;6.306;2023-02-05T08:53:49;103547.19;;;7.27;100.00
18900;BME280;9582;52.018;6.306;2023-02-05T08:56:23;103547.97;;;7.20;100.00
18900;BME280;9582;52.018;6.306;2023-02-05T08:58:52;103540.25;;;7.26;100.00
18900;BME280;9582;52.018;6.306;2023-02-05T09:01:18;103531.59;;;7.27;100.00
18900;BME280;9582;52.018;6.306;2023-02-05T09:03:47;103555.06;;;7.30;100.00
18900;BME280;9582;52.018;6.306;2023-02-05T09:06:19;103543.78;;;7.31;100.00
18900;BME280;9582;52.018;6.306;2023-02-05T09:08:48;103541.97;;;7.24;100.00
18900;BME280;9582;52.018;6.306;2023-02-05T09:11:29;103545.47;;;7.29;100.00
18900;BME280;9582;52.018;6.306;2023-02-05T09:13:58;103543.69;;;7.23;100.00
18900;BME280;9582;52.018;6.306;2023-02-05T09:16:25;103543.75;;;7.28;100.00
18900;BME280;9582;52.018;6.306;2023-02-05T09:18:52;103553.28;;;7.29;100.00
18900;BME280;9582;52.018;6.306;2023-02-05T09:21:25;103548.16;;;7.35;100.00
18900;BME280;9582;52.018;6.306;2023-02-05T09:23:56;103556.91;;;7.38;100.00
18900;BME280;9582;52.018;6.306;2023-02-05T09:26:28;103550.03;;;7.46;100.00
18900;BME280;9582;52.018;6.306;2023-02-05T09:28:54;103552.66;;;7.46;100.00
18900;BME280;9582;52.018;6.306;2023-02-05T09:31:33;103548.31;;;7.47;100.00
18900;BME280;9582;52.018;6.306;2023-02-05T09:34:01;103551.81;;;7.47;100.00
18900;BME280;9582;52.018;6.306;2023-02-05T09:36:33;103551.88;;;7.53;100.00
18900;BME280;9582;52.018;6.306;2023-02-05T09:39:02;103546.59;;;7.49;100.00
18900;BME280;9582;52.018;6.306;2023-02-05T09:41:38;103550.16;;;7.57;100.00
18900;BME280;9582;52.018;6.306;2023-02-05T09:44:31;103541.53;;;7.61;100.00
18900;BME280;9582;52.018;6.306;2023-02-05T09:47:10;103558.97;;;7.68;100.00
18900;BME280;9582;52.018;6.306;2023-02-05T09:49:47;103549.38;;;7.64;100.00
18900;BME280;9582;52.018;6.306;2023-02-05T09:52:23;103546.81;;;7.69;100.00
18900;BME280;9582;52.018;6.306;2023-02-05T09:54:58;103553.78;;;7.71;100.00
18900;BME280;9582;52.018;6.306;2023-02-05T09:57:34;103562.47;;;7.70;100.00
18900;BME280;9582;52.018;6.306;2023-02-05T10:00:05;103548.59;;;7.74;100.00
18900;BME280;9582;52.018;6.306;2023-02-05T10:02:46;103559.94;;;7.79;100.00
18900;BME280;9582;52.018;6.306;2023-02-05T10:05:28;103571.28;;;7.81;100.00
18900;BME280;9582;52.018;6.306;2023-02-05T10:08:06;103563.47;;;7.81;100.00
18900;BME280;9582;52.018;6.306;2023-02-05T10:10:39;103560.03;;;7.87;100.00
18900;BME280;9582;52.018;6.306;2023-02-05T10:13:40;103554.81;;;7.85;100.00
18900;BME280;9582;52.018;6.306;2023-02-05T10:19:10;103552.31;;;7.97;100.00
18900;BME280;9582;52.018;6.306;2023-02-05T10:21:53;103541.97;;;8.05;100.00
18900;BME280;9582;52.018;6.306;2023-02-05T10:24:43;103579.28;;;8.02;100.00
18900;BME280;9582;52.018;6.306;2023-02-05T10:27:20;103562.78;;;8.02;100.00
18900;BME280;9582;52.018;6.306;2023-02-05T10:29:56;103556.75;;;8.07;100.00
18900;BME280;9582;52.018;6.306;2023-02-05T10:32:35;103559.44;;;8.15;100.00
18900;BME280;9582;52.018;6.306;2023-02-05T10:35:16;103543.94;;;8.30;100.00
18900;BME280;9582;52.018;6.306;2023-02-05T10:37:50;103549.06;;;8.21;100.00
18900;BME280;9582;52.018;6.306;2023-02-05T10:40:21;103554.47;;;8.38;100.00
18900;BME280;9582;52.018;6.306;2023-02-05T10:43:00;103547.47;;;8.38;100.00
18900;BME280;9582;52.018;6.306;2023-02-05T10:45:32;103562.31;;;8.41;100.00
18900;BME280;9582;52.018;6.306;2023-02-05T10:48:04;103561.47;;;8.46;100.00
18900;BME280;9582;52.018;6.306;2023-02-05T10:50:45;103563.19;;;8.44;100.00
18900;BME280;9582;52.018;6.306;2023-02-05T10:53:18;103572.81;;;8.53;100.00
18900;BME280;9582;52.018;6.306;2023-02-05T10:55:46;103578.03;;;8.51;100.00
18900;BME280;9582;52.018;6.306;2023-02-05T10:58:32;103584.13;;;8.52;100.00
18900;BME280;9582;52.018;6.306;2023-02-05T11:01:06;103586.69;;;8.47;100.00
18900;BME280;9582;52.018;6.306;2023-02-05T11:03:36;103603.09;;;8.36;100.00
18900;BME280;9582;52.018;6.306;2023-02-05T11:06:09;103608.38;;;8.40;100.00
18900;BME280;9582;52.018;6.306;2023-02-05T11:08:40;103603.84;;;8.26;100.00
18900;BME280;9582;52.018;6.306;2023-02-05T11:11:20;103618.59;;;8.24;100.00
18900;BME280;9582;52.018;6.306;2023-02-05T11:13:50;103603.81;;;8.23;100.00
18900;BME280;9582;52.018;6.306;2023-02-05T11:16:23;103614.34;;;8.29;100.00
18900;BME280;9582;52.018;6.306;2023-02-05T11:19:01;103617.84;;;8.32;100.00
18900;BME280;9582;52.018;6.306;2023-02-05T11:21:51;103617.78;;;8.28;100.00
18900;BME280;9582;52.018;6.306;2023-02-05T11:24:25;103630.03;;;8.35;100.00
18900;BME280;9582;52.018;6.306;2023-02-05T11:27:10;103635.19;;;8.30;100.00
18900;BME280;9582;52.018;6.306;2023-02-05T11:29:41;103634.34;;;8.30;100.00
18900;BME280;9582;52.018;6.306;2023-02-05T11:32:18;103623.97;;;8.37;100.00
18900;BME280;9582;52.018;6.306;2023-02-05T11:34:48;103648.22;;;8.29;100.00
18900;BME280;9582;52.018;6.306;2023-02-05T11:37:17;103635.97;;;8.25;100.00
18900;BME280;9582;52.018;6.306;2023-02-05T11:39:49;103648.25;;;8.32;100.00
18900;BME280;9582;52.018;6.306;2023-02-05T11:42:21;103637.81;;;8.30;100.00
18900;BME280;9582;52.018;6.306;2023-02-05T11:47:36;103645.72;;;8.39;100.00
18900;BME280;9582;52.018;6.306;2023-02-05T11:50:21;103642.25;;;8.42;100.00
18900;BME280;9582;52.018;6.306;2023-02-05T11:52:54;103626.69;;;8.48;100.00
18900;BME280;9582;52.018;6.306;2023-02-05T11:55:34;103647.47;;;8.42;100.00
18900;BME280;9582;52.018;6.306;2023-02-05T11:58:03;103616.31;;;8.58;100.00
18900;BME280;9582;52.018;6.306;2023-02-05T12:00:30;103619.84;;;8.66;100.00
18900;BME280;9582;52.018;6.306;2023-02-05T12:03:17;103622.53;;;8.71;100.00
18900;BME280;9582;52.018;6.306;2023-02-05T12:05:49;103626.91;;;8.78;100.00
18900;BME280;9582;52.018;6.306;2023-02-05T12:08:29;103635.56;;;8.71;100.00
18900;BME280;9582;52.018;6.306;2023-02-05T12:11:05;103643.34;;;8.66;100.00
18900;BME280;9582;52.018;6.306;2023-02-05T12:13:55;103652.00;;;8.62;100.00
18900;BME280;9582;52.018;6.306;2023-02-05T12:16:35;103654.50;;;8.49;100.00
18900;BME280;9582;52.018;6.306;2023-02-05T12:19:16;103660.50;;;8.37;100.00
18900;BME280;9582;52.018;6.306;2023-02-05T12:21:47;103655.25;;;8.36;100.00
18900;BME280;9582;52.018;6.306;2023-02-05T12:24:52;103644.09;;;8.53;100.00
18900;BME280;9582;52.018;6.306;2023-02-05T12:27:39;103644.06;;;8.50;100.00
18900;BME280;9582;52.018;6.306;2023-02-05T12:30:18;103647.56;;;8.49;100.00
18900;BME280;9582;52.018;6.306;2023-02-05T12:32:56;103658.09;;;8.60;100.00
18900;BME280;9582;52.018;6.306;2023-02-05T12:35:41;103649.44;;;8.65;100.00
18900;BME280;9582;52.018;6.306;2023-02-05T12:38:20;103656.47;;;8.74;100.00
18900;BME280;9582;52.018;6.306;2023-02-05T12:40:59;103638.34;;;8.94;100.00
18900;BME280;9582;52.018;6.306;2023-02-05T12:43:36;103645.28;;;8.93;100.00
18900;BME280;9582;52.018;6.306;2023-02-05T12:46:19;103648.72;;;8.83;100.00
18900;BME280;9582;52.018;6.306;2023-02-05T12:49:15;103650.50;;;8.89;100.00
18900;BME280;9582;52.018;6.306;2023-02-05T12:52:01;103649.66;;;8.94;100.00
18900;BME280;9582;52.018;6.306;2023-02-05T12:54:51;103660.13;;;8.97;100.00
18900;BME280;9582;52.018;6.306;2023-02-05T12:57:30;103656.59;;;8.91;100.00
18900;BME280;9582;52.018;6.306;2023-02-05T13:00:06;103657.50;;;8.96;100.00
18900;BME280;9582;52.018;6.306;2023-02-05T13:02:48;103687.16;;;9.07;100.00
18900;BME280;9582;52.018;6.306;2023-02-05T13:05:24;103661.00;;;9.01;100.00
18900;BME280;9582;52.018;6.306;2023-02-05T13:08:00;103666.22;;;9.01;100.00
18900;BME280;9582;52.018;6.306;2023-02-05T13:10:38;103672.31;;;9.01;100.00
18900;BME280;9582;52.018;6.306;2023-02-05T13:13:16;103671.38;;;8.89;100.00
18900;BME280;9582;52.018;6.306;2023-02-05T13:15:53;103667.00;;;8.89;100.00
18900;BME280;9582;52.018;6.306;2023-02-05T13:18:32;103677.44;;;8.89;100.00
18900;BME280;9582;52.018;6.306;2023-02-05T13:21:11;103692.25;;;8.89;100.00
18900;BME280;9582;52.018;6.306;2023-02-05T13:24:22;103686.09;;;8.82;100.00
18900;BME280;9582;52.018;6.306;2023-02-05T13:27:20;103687.84;;;8.83;100.00
18900;BME280;9582;52.018;6.306;2023-02-05T13:30:09;103698.25;;;8.82;100.00
18900;BME280;9582;52.018;6.306;2023-02-05T13:32:41;103698.28;;;8.85;100.00
18900;BME280;9582;52.018;6.306;2023-02-05T13:35:11;103701.72;;;8.79;100.00
18900;BME280;9582;52.018;6.306;2023-02-05T13:37:53;103696.50;;;8.79;100.00
18900;BME280;9582;52.018;6.306;2023-02-05T13:40:39;103701.66;;;8.73;100.00